Time;durP1;ratioP1;P1;durP2;ratioP2;P2;SDS_P1;SDS_P2;PMS_P1;PMS_P2;Temp;Humidity;BMP_temperature;BMP_pressure;BME280_temperature;BME280_humidity;BME280_pressure;Samples;Min_cycle;Max_cycle;Signal;HPM_P1;HPM_P2
2021/10/20 00:01:35;;;;;;;6.67;3.23;;;14.10;99.90;;;;;;5034637;28;20398;-74
2021/10/20 00:04:02;;;;;;;4.70;4.30;;;14.10;99.90;;;;;;5034418;28;20159;-74
2021/10/20 00:06:27;;;;;;;6.13;3.80;;;14.10;99.90;;;;;;5034475;28;20151;-74
2021/10/20 00:08:53;;;;;;;5.60;3.53;;;14.10;99.90;;;;;;5052344;28;20440;-75
2021/10/20 00:11:19;;;;;;;5.13;4.63;;;14.00;99.90;;;;;;5053231;28;20590;-74
2021/10/20 00:13:46;;;;;;;4.77;3.87;;;14.10;99.90;;;;;;5054238;28;20648;-74
2021/10/20 00:16:11;;;;;;;5.03;4.63;;;14.00;99.90;;;;;;5049390;28;20266;-74
2021/10/20 00:18:37;;;;;;;6.50;4.57;;;14.00;99.90;;;;;;5033266;28;20436;-74
2021/10/20 00:21:05;;;;;;;4.47;4.07;;;14.00;99.90;;;;;;5032822;28;20170;-75
2021/10/20 00:23:31;;;;;;;5.40;3.97;;;14.00;99.90;;;;;;5034052;28;20170;-74
2021/10/20 00:25:56;;;;;;;5.27;4.10;;;14.00;99.90;;;;;;5033900;28;20964;-74
2021/10/20 00:28:22;;;;;;;7.57;6.00;;;14.00;99.90;;;;;;5037960;28;20181;-74
2021/10/20 00:30:47;;;;;;;7.03;5.50;;;14.00;99.90;;;;;;5042366;28;20761;-74
2021/10/20 00:33:13;;;;;;;3.87;3.43;;;13.90;99.90;;;;;;5033894;28;20266;-74
2021/10/20 00:35:38;;;;;;;5.27;4.80;;;13.90;99.90;;;;;;5033567;28;20206;-75
2021/10/20 00:38:04;;;;;;;5.53;5.03;;;14.00;99.90;;;;;;5033956;28;20524;-74
2021/10/20 00:40:30;;;;;;;5.43;4.93;;;14.00;99.90;;;;;;5033896;28;20619;-73
2021/10/20 00:42:55;;;;;;;6.67;5.23;;;14.00;99.90;;;;;;5033726;28;20190;-73
2021/10/20 00:45:21;;;;;;;8.03;6.17;;;14.00;99.90;;;;;;5037563;28;20280;-74
2021/10/20 00:47:46;;;;;;;5.43;4.37;;;13.90;99.90;;;;;;5052458;28;20161;-74
2021/10/20 00:50:14;;;;;;;6.90;5.17;;;13.90;99.90;;;;;;5053376;28;20157;-74
2021/10/20 00:52:41;;;;;;;4.90;4.40;;;13.90;99.90;;;;;;5051044;28;20172;-74
2021/10/20 00:55:08;;;;;;;4.53;3.77;;;13.90;99.90;;;;;;5033469;28;20400;-73
2021/10/20 00:57:34;;;;;;;5.23;4.07;;;13.90;99.90;;;;;;5033490;28;20402;-74
2021/10/20 01:00:03;;;;;;;6.60;4.87;;;13.90;99.90;;;;;;5033246;28;20762;-73
2021/10/20 01:02:29;;;;;;;3.83;3.53;;;13.80;99.90;;;;;;5033798;28;20412;-74
2021/10/20 01:04:55;;;;;;;6.40;5.40;;;13.80;99.90;;;;;;5033240;28;20452;-74
2021/10/20 01:07:22;;;;;;;9.73;6.53;;;13.80;99.90;;;;;;5033336;28;20159;-73
2021/10/20 01:09:48;;;;;;;6.30;5.00;;;13.80;99.90;;;;;;5033164;28;20158;-74
2021/10/20 01:12:16;;;;;;;4.73;4.23;;;13.70;99.90;;;;;;5050168;28;20437;-74
2021/10/20 01:14:42;;;;;;;4.83;4.43;;;13.70;99.90;;;;;;5053290;28;20399;-73
2021/10/20 01:17:08;;;;;;;6.00;4.47;;;13.70;99.90;;;;;;5053005;28;20480;-74
2021/10/20 01:19:35;;;;;;;4.07;3.67;;;13.80;99.90;;;;;;5052439;28;20847;-74
2021/10/20 01:22:01;;;;;;;7.00;4.40;;;13.80;99.90;;;;;;5038334;28;20214;-74
2021/10/20 01:24:27;;;;;;;4.30;3.90;;;13.80;99.90;;;;;;5032799;28;20465;-73
2021/10/20 01:26:55;;;;;;;4.20;3.70;;;13.80;99.90;;;;;;5032957;28;20478;-74
2021/10/20 01:29:21;;;;;;;3.80;3.50;;;13.80;99.90;;;;;;5032784;28;20210;-74
2021/10/20 01:31:49;;;;;;;4.97;4.13;;;13.80;99.90;;;;;;5032735;28;20386;-74
2021/10/20 01:34:15;;;;;;;4.50;4.10;;;13.80;99.90;;;;;;5032797;28;20402;-74
2021/10/20 01:36:42;;;;;;;5.33;3.80;;;13.80;99.90;;;;;;5033137;28;20776;-73
2021/10/20 01:39:08;;;;;;;4.50;4.10;;;13.80;99.90;;;;;;5032687;28;20187;-73
2021/10/20 01:41:36;;;;;;;4.40;4.00;;;13.80;99.90;;;;;;5039006;28;20521;-73
2021/10/20 01:44:02;;;;;;;5.40;3.83;;;13.80;99.90;;;;;;5052289;28;20404;-74
2021/10/20 01:46:27;;;;;;;6.63;3.93;;;13.90;99.90;;;;;;5052246;28;20487;-73
2021/10/20 01:48:53;;;;;;;5.27;4.03;;;13.80;99.90;;;;;;5051412;28;20692;-74
2021/10/20 01:51:18;;;;;;;5.17;4.47;;;13.80;99.90;;;;;;5052533;28;20153;-73
2021/10/20 01:53:44;;;;;;;4.50;4.03;;;13.80;99.90;;;;;;5044813;28;20186;-74
2021/10/20 01:56:12;;;;;;;4.27;3.97;;;13.80;99.90;;;;;;5032324;28;20179;-74
2021/10/20 01:58:39;;;;;;;5.03;4.63;;;13.80;99.90;;;;;;5032088;28;20413;-74
2021/10/20 02:01:07;;;;;;;5.20;3.83;;;13.70;99.90;;;;;;5032199;28;20402;-74
2021/10/20 02:03:35;;;;;;;5.00;4.50;;;13.70;99.90;;;;;;5032231;28;20401;-74
2021/10/20 02:06:02;;;;;;;7.33;4.40;;;13.70;99.90;;;;;;5032321;28;20454;-74
2021/10/20 02:08:28;;;;;;;4.50;4.10;;;13.70;99.90;;;;;;5032362;28;20472;-74
2021/10/20 02:10:53;;;;;;;5.07;4.20;;;13.60;99.90;;;;;;5039747;28;20922;-74
2021/10/20 02:13:19;;;;;;;4.50;4.10;;;13.60;99.90;;;;;;5052237;28;20161;-74
2021/10/20 02:15:44;;;;;;;6.67;4.10;;;13.60;99.90;;;;;;5052224;28;20231;-74
2021/10/20 02:18:10;;;;;;;4.77;4.10;;;13.60;99.90;;;;;;5035853;28;20749;-74
2021/10/20 02:20:35;;;;;;;6.73;4.50;;;13.60;99.90;;;;;;5032353;28;20167;-74
2021/10/20 02:23:01;;;;;;;5.00;4.10;;;13.60;99.90;;;;;;5032054;28;20184;-74
2021/10/20 02:25:27;;;;;;;4.40;4.00;;;13.60;99.90;;;;;;5031817;28;20271;-74
2021/10/20 02:27:53;;;;;;;5.90;4.20;;;13.60;99.90;;;;;;5040741;28;20222;-74
2021/10/20 02:30:18;;;;;;;4.00;3.70;;;13.60;99.90;;;;;;5035369;28;20177;-74
2021/10/20 02:32:44;;;;;;;6.57;4.17;;;13.70;99.90;;;;;;5032004;28;20161;-74
2021/10/20 02:35:10;;;;;;;4.60;4.20;;;13.60;99.90;;;;;;5031933;28;20166;-75
2021/10/20 02:37:36;;;;;;;5.87;4.00;;;13.70;99.90;;;;;;5031777;28;20536;-74
2021/10/20 02:40:04;;;;;;;5.13;4.60;;;13.60;99.90;;;;;;5031837;28;20483;-74
2021/10/20 02:42:29;;;;;;;4.67;4.20;;;13.60;99.90;;;;;;5046284;28;20468;-73
2021/10/20 02:44:55;;;;;;;5.10;4.57;;;13.60;99.90;;;;;;5042450;28;20999;-74
2021/10/20 02:47:20;;;;;;;5.70;4.30;;;13.60;99.90;;;;;;5031779;28;20170;-74
2021/10/20 02:49:46;;;;;;;4.40;4.00;;;13.70;99.90;;;;;;5032022;28;20165;-73
2021/10/20 02:52:12;;;;;;;5.73;4.33;;;13.60;99.90;;;;;;5032047;28;20245;-74
2021/10/20 02:54:37;;;;;;;5.10;4.57;;;13.60;99.90;;;;;;5032225;28;20193;-74
2021/10/20 02:57:03;;;;;;;4.90;4.50;;;13.70;99.90;;;;;;5031978;28;20184;-75
2021/10/20 02:59:29;;;;;;;8.17;5.10;;;13.60;99.90;;;;;;5032026;28;20179;-70
2021/10/20 03:01:54;;;;;;;6.80;5.27;;;13.60;99.90;;;;;;5032667;28;20451;-77
2021/10/20 03:04:20;;;;;;;5.00;4.20;;;13.70;99.90;;;;;;5031568;28;20214;-80
2021/10/20 03:06:45;;;;;;;4.90;3.97;;;13.70;99.90;;;;;;5031707;28;20159;-81
2021/10/20 03:09:11;;;;;;;8.57;4.03;;;13.80;99.90;;;;;;5032087;28;20291;-79
2021/10/20 03:11:37;;;;;;;5.00;4.50;;;13.80;99.90;;;;;;5052905;28;20167;-79
2021/10/20 03:14:02;;;;;;;5.23;4.70;;;13.80;99.90;;;;;;5055570;28;20584;-79
2021/10/20 03:16:28;;;;;;;6.57;4.50;;;13.80;99.90;;;;;;5054930;28;20794;-79
2021/10/20 03:18:54;;;;;;;5.90;4.90;;;13.80;99.90;;;;;;5054328;28;20262;-79
2021/10/20 03:21:19;;;;;;;4.67;4.10;;;13.80;99.90;;;;;;5055144;28;20173;-81
2021/10/20 03:23:45;;;;;;;4.97;4.57;;;13.80;99.90;;;;;;5054991;28;20887;-79
2021/10/20 03:26:11;;;;;;;4.43;3.97;;;13.80;99.90;;;;;;5046608;28;20241;-80
2021/10/20 03:28:36;;;;;;;4.73;4.33;;;13.80;99.90;;;;;;5051724;28;20651;-79
2021/10/20 03:31:02;;;;;;;4.63;4.13;;;13.80;99.90;;;;;;5035097;28;20171;-80
2021/10/20 03:33:27;;;;;;;5.07;4.57;;;13.80;99.90;;;;;;5035197;28;20163;-79
2021/10/20 03:35:53;;;;;;;4.50;4.10;;;13.80;99.90;;;;;;5035475;28;20200;-80
2021/10/20 03:38:19;;;;;;;9.53;4.53;;;13.80;99.90;;;;;;5045361;28;20177;-80
2021/10/20 03:40:44;;;;;;;5.10;4.00;;;13.80;99.90;;;;;;5054903;28;20166;-79
2021/10/20 03:43:10;;;;;;;5.00;4.50;;;13.80;99.90;;;;;;5038567;28;20673;-79
2021/10/20 03:45:35;;;;;;;5.83;4.90;;;13.80;99.90;;;;;;5045078;28;20201;-80
2021/10/20 03:48:01;;;;;;;5.77;4.97;;;13.80;99.90;;;;;;5043254;28;20183;-78
2021/10/20 03:50:26;;;;;;;4.30;3.90;;;13.80;99.90;;;;;;5051562;28;20212;-78
2021/10/20 03:52:52;;;;;;;5.03;4.00;;;13.80;99.90;;;;;;5045466;28;20173;-79
2021/10/20 03:55:18;;;;;;;4.80;4.23;;;13.80;99.90;;;;;;5036989;28;20178;-80
2021/10/20 03:57:43;;;;;;;7.40;4.40;;;13.90;99.90;;;;;;5054718;28;20677;-78
2021/10/20 04:00:12;;;;;;;5.47;4.50;;;13.90;99.90;;;;;;5040324;28;20186;-81
2021/10/20 04:02:42;;;;;;;5.30;3.63;;;13.90;99.90;;;;;;5034579;28;20161;-78
2021/10/20 04:05:09;;;;;;;4.27;3.57;;;13.90;99.90;;;;;;5034361;28;20857;-80
2021/10/20 04:07:36;;;;;;;4.80;3.97;;;13.90;99.90;;;;;;5034612;28;20527;-79
2021/10/20 04:10:02;;;;;;;4.50;3.90;;;13.90;99.90;;;;;;5036287;28;20416;-80
2021/10/20 04:12:28;;;;;;;5.27;4.40;;;13.90;99.90;;;;;;5034105;28;20874;-80
2021/10/20 04:14:53;;;;;;;5.97;4.90;;;13.90;99.90;;;;;;5034242;28;20250;-79
2021/10/20 04:17:19;;;;;;;8.70;5.83;;;13.90;99.90;;;;;;5043390;28;20188;-80
2021/10/20 04:19:44;;;;;;;4.70;4.00;;;13.90;99.90;;;;;;5040771;28;20583;-81
2021/10/20 04:22:10;;;;;;;5.20;4.23;;;13.90;99.90;;;;;;5036813;28;20178;-79
2021/10/20 04:24:35;;;;;;;4.50;4.00;;;13.90;99.90;;;;;;5044422;28;20210;-79
2021/10/20 04:27:01;;;;;;;5.83;4.60;;;13.90;99.90;;;;;;5039275;28;20174;-78
2021/10/20 04:29:26;;;;;;;8.30;4.80;;;13.90;99.90;;;;;;5034174;28;20215;-77
2021/10/20 04:31:52;;;;;;;5.07;4.57;;;14.00;99.90;;;;;;5033762;28;20250;-79
2021/10/20 04:34:18;;;;;;;6.60;3.93;;;14.00;99.90;;;;;;5033781;28;20289;-78
2021/10/20 04:36:43;;;;;;;5.40;4.07;;;14.00;99.90;;;;;;5033779;28;20159;-79
2021/10/20 04:39:09;;;;;;;5.00;4.20;;;14.00;99.90;;;;;;5033803;28;20152;-78
2021/10/20 04:41:34;;;;;;;4.90;4.37;;;14.00;99.90;;;;;;5040404;28;20536;-78
2021/10/20 04:44:00;;;;;;;3.80;3.50;;;14.10;99.90;;;;;;5043854;28;20408;-79
2021/10/20 04:46:26;;;;;;;4.60;4.20;;;14.00;99.90;;;;;;5033481;28;20480;-79
2021/10/20 04:48:51;;;;;;;4.47;4.07;;;14.00;99.90;;;;;;5044167;28;20187;-80
2021/10/20 04:51:17;;;;;;;4.40;4.00;;;14.00;99.90;;;;;;5038910;28;20173;-79
2021/10/20 04:53:42;;;;;;;6.00;4.17;;;14.00;99.90;;;;;;5049796;28;20178;-75
2021/10/20 04:56:08;;;;;;;5.30;4.80;;;14.00;99.90;;;;;;5042523;28;20185;-78
2021/10/20 04:58:34;;;;;;;4.53;4.13;;;14.10;99.90;;;;;;5033116;28;20189;-78
2021/10/20 05:00:59;;;;;;;4.63;4.20;;;14.10;99.90;;;;;;5036225;28;20186;-77
2021/10/20 05:03:25;;;;;;;4.40;4.00;;;14.20;99.90;;;;;;5052908;28;20161;-80
2021/10/20 05:05:50;;;;;;;4.97;4.47;;;14.20;99.90;;;;;;5033326;28;20201;-80
2021/10/20 05:08:16;;;;;;;5.73;5.23;;;14.30;99.90;;;;;;5032698;28;20167;-78
2021/10/20 05:10:41;;;;;;;4.60;4.20;;;14.30;99.90;;;;;;5039818;28;20560;-79
2021/10/20 05:13:07;;;;;;;6.60;4.43;;;14.30;99.90;;;;;;5034374;28;20198;-80
2021/10/20 05:15:32;;;;;;;5.40;4.53;;;14.40;99.90;;;;;;5032373;28;20238;-80
2021/10/20 05:17:58;;;;;;;4.13;3.83;;;14.40;99.90;;;;;;5037353;28;20171;-76
2021/10/20 05:20:23;;;;;;;4.90;4.17;;;14.40;99.90;;;;;;5039802;28;20181;-78
2021/10/20 05:22:49;;;;;;;6.00;5.00;;;14.50;99.90;;;;;;5041388;28;20714;-78
2021/10/20 05:25:16;;;;;;;4.90;4.33;;;14.50;99.90;;;;;;5032844;28;20199;-80
2021/10/20 05:27:43;;;;;;;9.13;3.87;;;14.60;99.90;;;;;;5044249;28;20172;-78
2021/10/20 05:30:09;;;;;;;4.67;4.07;;;14.60;99.90;;;;;;5036636;28;20971;-78
2021/10/20 05:32:35;;;;;;;4.93;4.43;;;14.60;99.90;;;;;;5039481;28;20453;-78
2021/10/20 05:35:00;;;;;;;5.07;4.50;;;14.60;99.90;;;;;;5041458;28;20464;-79
2021/10/20 05:37:26;;;;;;;6.30;3.90;;;14.60;99.90;;;;;;5043819;28;20564;-80
2021/10/20 05:39:53;;;;;;;7.00;3.90;;;14.60;99.90;;;;;;5033919;28;20188;-78
2021/10/20 05:42:19;;;;;;;5.40;4.60;;;14.60;99.90;;;;;;5035139;28;20205;-74
2021/10/20 05:44:45;;;;;;;8.33;4.40;;;14.60;99.90;;;;;;5037025;28;20465;-80
2021/10/20 05:47:11;;;;;;;5.33;4.43;;;14.60;99.90;;;;;;5032646;28;20826;-80
2021/10/20 05:49:37;;;;;;;4.83;4.43;;;14.60;99.90;;;;;;5050549;28;20428;-79
2021/10/20 05:52:04;;;;;;;5.00;4.50;;;14.60;99.90;;;;;;5036716;28;20422;-80
2021/10/20 05:54:29;;;;;;;5.27;4.80;;;14.60;99.90;;;;;;5034864;28;20643;-78
2021/10/20 05:56:55;;;;;;;5.23;4.70;;;14.60;99.90;;;;;;5034445;28;20449;-78
2021/10/20 05:59:23;;;;;;;4.90;4.40;;;14.60;99.90;;;;;;5042950;28;20672;-79
2021/10/20 06:01:49;;;;;;;5.73;5.00;;;14.60;99.90;;;;;;5033504;28;20181;-79
2021/10/20 06:04:16;;;;;;;5.83;4.63;;;14.60;99.90;;;;;;5034006;28;20426;-79
2021/10/20 06:06:42;;;;;;;5.17;4.60;;;14.60;99.90;;;;;;5041138;28;20472;-79
2021/10/20 06:09:08;;;;;;;5.50;4.63;;;14.60;99.90;;;;;;5048974;28;20405;-80
2021/10/20 06:11:33;;;;;;;5.40;4.67;;;14.60;99.90;;;;;;5033339;28;20520;-79
2021/10/20 06:13:59;;;;;;;4.73;4.33;;;14.60;99.90;;;;;;5031036;28;20174;-78
2021/10/20 06:16:24;;;;;;;5.17;4.10;;;14.60;99.90;;;;;;5031764;28;20318;-79
2021/10/20 06:18:50;;;;;;;5.77;4.53;;;14.60;99.90;;;;;;5033893;28;20180;-80
2021/10/20 06:21:15;;;;;;;8.50;4.77;;;14.60;99.90;;;;;;5043995;28;20179;-82
2021/10/20 06:23:41;;;;;;;6.30;4.37;;;14.60;99.90;;;;;;5032021;28;20208;-80
2021/10/20 06:26:07;;;;;;;5.43;4.30;;;14.60;99.90;;;;;;5037723;28;20219;-79
2021/10/20 06:28:33;;;;;;;5.30;4.80;;;14.60;99.90;;;;;;5041907;28;20259;-80
2021/10/20 06:30:58;;;;;;;7.87;4.83;;;14.70;99.90;;;;;;5033169;28;20267;-78
2021/10/20 06:33:24;;;;;;;6.00;5.50;;;14.70;99.90;;;;;;5039977;28;20571;-79
2021/10/20 06:35:50;;;;;;;5.30;4.37;;;14.70;99.90;;;;;;5033281;28;20481;-81
2021/10/20 06:38:15;;;;;;;4.80;4.33;;;14.70;99.90;;;;;;5039808;28;20612;-79
2021/10/20 06:40:41;;;;;;;4.90;4.47;;;14.70;99.90;;;;;;5049634;28;20206;-80
2021/10/20 06:43:07;;;;;;;5.10;4.60;;;14.80;99.90;;;;;;5035499;28;20191;-79
2021/10/20 06:45:34;;;;;;;4.90;4.50;;;14.80;99.90;;;;;;5032621;28;20203;-80
2021/10/20 06:48:00;;;;;;;8.27;5.27;;;14.80;99.90;;;;;;5035320;28;20167;-80
2021/10/20 06:50:25;;;;;;;5.07;4.60;;;14.80;99.90;;;;;;5036640;28;20419;-79
2021/10/20 06:52:51;;;;;;;7.23;4.53;;;14.80;99.90;;;;;;5034389;28;20192;-80
2021/10/20 06:55:17;;;;;;;5.90;4.60;;;14.80;99.90;;;;;;5036878;28;20613;-79
2021/10/20 06:57:42;;;;;;;4.83;4.17;;;14.70;99.90;;;;;;5038698;28;20191;-80
2021/10/20 07:00:10;;;;;;;7.80;4.90;;;14.80;99.90;;;;;;5037972;28;20716;-80
2021/10/20 07:02:36;;;;;;;8.07;5.10;;;14.70;99.90;;;;;;5037140;28;20329;-81
2021/10/20 07:05:04;;;;;;;5.50;4.87;;;14.70;99.90;;;;;;5040471;28;20540;-81
2021/10/20 07:07:29;;;;;;;5.10;4.60;;;14.70;99.90;;;;;;5042655;28;20175;-78
2021/10/20 07:09:55;;;;;;;6.67;5.10;;;14.70;99.90;;;;;;5037034;28;20946;-78
2021/10/20 07:12:20;;;;;;;5.63;4.07;;;14.80;99.90;;;;;;5035565;28;20563;-81
2021/10/20 07:14:47;;;;;;;5.07;4.67;;;14.90;99.90;;;;;;5044432;28;20829;-79
2021/10/20 07:17:13;;;;;;;6.30;5.40;;;14.90;99.90;;;;;;5049605;28;20222;-82
2021/10/20 07:19:38;;;;;;;5.63;5.13;;;15.00;99.90;;;;;;5047415;28;20423;-80
2021/10/20 07:22:06;;;;;;;5.10;4.10;;;15.10;99.90;;;;;;5038998;28;20436;-81
2021/10/20 07:24:32;;;;;;;8.80;4.80;;;15.10;99.90;;;;;;5034902;28;20211;-80
2021/10/20 07:26:57;;;;;;;6.80;4.90;;;15.10;99.90;;;;;;5034807;28;20498;-81
2021/10/20 07:29:23;;;;;;;5.07;4.57;;;15.20;99.90;;;;;;5037551;28;20211;-80
2021/10/20 07:31:48;;;;;;;5.57;4.93;;;15.20;99.90;;;;;;5036879;28;20179;-81
2021/10/20 07:34:14;;;;;;;5.10;4.60;;;15.20;99.90;;;;;;5042391;28;20180;-80
2021/10/20 07:36:42;;;;;;;8.80;4.93;;;15.30;99.90;;;;;;5051730;28;20207;-80
2021/10/20 07:39:07;;;;;;;7.60;4.43;;;15.30;99.90;;;;;;5053937;28;20172;-80
2021/10/20 07:41:33;;;;;;;6.13;4.53;;;15.40;99.90;;;;;;5037344;28;20973;-80
2021/10/20 07:43:59;;;;;;;5.20;4.70;;;15.50;99.90;;;;;;5044553;28;20430;-81
2021/10/20 07:46:25;;;;;;;6.80;6.10;;;15.50;99.90;;;;;;5036431;28;20799;-80
2021/10/20 07:48:50;;;;;;;5.53;4.83;;;15.50;99.90;;;;;;5042015;28;20663;-82
2021/10/20 07:51:16;;;;;;;5.57;5.07;;;15.50;99.90;;;;;;5034126;28;20273;-79
2021/10/20 07:53:42;;;;;;;5.00;4.50;;;15.50;99.90;;;;;;5041210;28;20219;-81
2021/10/20 07:56:08;;;;;;;4.90;4.13;;;15.50;99.90;;;;;;5039176;28;20411;-80
2021/10/20 07:58:35;;;;;;;5.70;4.33;;;15.50;99.90;;;;;;5043241;28;20583;-79
2021/10/20 08:01:01;;;;;;;6.97;4.63;;;15.60;99.90;;;;;;5037526;28;20225;-79
2021/10/20 08:03:28;;;;;;;6.27;5.17;;;15.60;99.90;;;;;;5039821;28;20514;-80
2021/10/20 08:05:54;;;;;;;6.77;4.73;;;15.60;99.90;;;;;;5047782;28;20584;-82
2021/10/20 08:08:20;;;;;;;6.90;4.73;;;15.60;99.90;;;;;;5037070;28;20423;-80
2021/10/20 08:10:45;;;;;;;5.53;5.03;;;15.60;99.90;;;;;;5042972;28;20903;-79
2021/10/20 08:13:11;;;;;;;5.10;4.50;;;15.70;99.90;;;;;;5034965;28;20173;-80
2021/10/20 08:15:39;;;;;;;5.40;4.90;;;15.70;99.90;;;;;;5041222;28;20180;-81
2021/10/20 08:18:05;;;;;;;6.73;4.70;;;15.70;99.90;;;;;;5044607;28;20249;-78
2021/10/20 08:20:34;;;;;;;4.90;4.50;;;15.70;99.90;;;;;;5041333;28;20422;-79
2021/10/20 08:23:00;;;;;;;5.37;4.80;;;15.80;99.90;;;;;;5042052;28;20514;-81
2021/10/20 08:25:26;;;;;;;6.00;4.80;;;15.70;99.90;;;;;;5034441;28;20466;-79
2021/10/20 08:27:52;;;;;;;6.47;4.77;;;15.70;99.90;;;;;;5042946;28;20461;-80
2021/10/20 08:30:18;;;;;;;6.20;4.87;;;15.70;99.90;;;;;;5035700;28;20709;-76
2021/10/20 08:32:47;;;;;;;9.33;5.10;;;15.60;99.90;;;;;;5033975;28;20434;-77
2021/10/20 08:35:16;;;;;;;6.83;5.27;;;15.60;99.90;;;;;;5031765;28;20183;-78
2021/10/20 08:37:43;;;;;;;7.20;4.53;;;15.60;99.90;;;;;;5034670;28;20423;-78
2021/10/20 08:40:11;;;;;;;5.47;4.97;;;15.60;99.90;;;;;;5041681;28;20804;-78
2021/10/20 08:42:38;;;;;;;5.40;4.20;;;15.60;99.90;;;;;;5034017;28;20454;-77
2021/10/20 08:45:06;;;;;;;5.73;4.63;;;15.60;99.90;;;;;;5036717;28;20508;-79
2021/10/20 08:47:33;;;;;;;5.10;4.20;;;15.60;99.90;;;;;;5040519;28;20430;-79
2021/10/20 08:50:01;;;;;;;6.47;5.27;;;15.60;99.90;;;;;;5036589;28;20439;-81
2021/10/20 08:52:27;;;;;;;5.73;4.83;;;15.60;99.90;;;;;;5038225;28;20439;-79
2021/10/20 08:54:53;;;;;;;4.50;4.10;;;15.60;99.90;;;;;;5041397;28;20506;-79
2021/10/20 08:57:19;;;;;;;6.27;5.00;;;15.60;99.90;;;;;;5032914;28;20427;-81
2021/10/20 08:59:45;;;;;;;6.17;4.70;;;15.60;99.90;;;;;;5042937;28;20543;-74
2021/10/20 09:02:12;;;;;;;8.23;5.80;;;15.60;99.90;;;;;;5044865;28;20580;-79
2021/10/20 09:04:38;;;;;;;4.57;4.27;;;15.70;99.90;;;;;;5041512;28;20270;-78
2021/10/20 09:07:14;;;;;;;8.83;4.80;;;15.70;99.90;;;;;;5041931;28;20419;-77
2021/10/20 09:09:40;;;;;;;5.13;4.63;;;15.70;99.90;;;;;;5040120;28;20628;-80
2021/10/20 09:12:05;;;;;;;7.67;4.90;;;15.70;99.90;;;;;;5033343;28;20469;-78
2021/10/20 09:14:31;;;;;;;6.43;5.27;;;15.70;99.90;;;;;;5038469;28;20803;-80
2021/10/20 09:17:02;;;;;;;6.17;4.97;;;15.70;99.90;;;;;;5042588;28;20180;-80
2021/10/20 09:19:32;;;;;;;11.23;7.60;;;15.70;99.90;;;;;;5040043;28;20692;-77
2021/10/20 09:22:01;;;;;;;4.60;4.20;;;15.80;99.90;;;;;;5038263;28;20416;-77
2021/10/20 09:24:33;;;;;;;6.20;4.73;;;15.80;99.90;;;;;;5035944;28;20593;-80
2021/10/20 09:27:01;;;;;;;6.00;5.17;;;15.90;99.90;;;;;;5037951;28;20484;-76
2021/10/20 09:29:31;;;;;;;5.20;4.47;;;15.90;99.90;;;;;;5043206;28;20415;-72
2021/10/20 09:31:57;;;;;;;5.50;4.50;;;16.00;99.90;;;;;;5035969;28;20427;-78
2021/10/20 09:34:34;;;;;;;5.47;4.50;;;16.10;99.90;;;;;;5030250;28;20427;-79
2021/10/20 09:37:03;;;;;;;5.20;4.70;;;16.10;99.90;;;;;;5038056;28;20930;-77
2021/10/20 09:39:28;;;;;;;7.50;5.90;;;16.00;99.90;;;;;;5044122;28;20430;-81
2021/10/20 09:42:05;;;;;;;4.73;4.33;;;16.00;99.90;;;;;;5041678;28;20981;-74
2021/10/20 09:44:46;;;;;;;6.60;4.90;;;16.00;99.90;;;;;;5049414;28;20479;-76
2021/10/20 09:47:12;;;;;;;8.63;5.53;;;16.10;99.90;;;;;;5045833;28;20795;-80
2021/10/20 09:49:47;;;;;;;5.27;4.77;;;16.10;99.90;;;;;;5037464;28;20426;-81
2021/10/20 09:52:13;;;;;;;6.10;4.63;;;16.10;99.90;;;;;;5032336;28;20172;-79
2021/10/20 09:54:41;;;;;;;7.23;5.03;;;16.10;99.90;;;;;;5032861;28;20423;-82
2021/10/20 09:57:07;;;;;;;5.23;4.50;;;16.10;99.90;;;;;;5038162;28;20215;-77
2021/10/20 09:59:33;;;;;;;5.50;4.90;;;16.10;99.90;;;;;;5038342;28;20470;-77
2021/10/20 10:01:59;;;;;;;6.30;4.77;;;16.10;99.90;;;;;;5049520;28;20171;-81
2021/10/20 10:04:25;;;;;;;8.27;5.33;;;16.00;99.90;;;;;;5037279;28;20466;-79
2021/10/20 10:06:51;;;;;;;7.00;4.90;;;16.00;99.90;;;;;;5039773;28;20423;-83
2021/10/20 10:09:18;;;;;;;7.53;5.17;;;16.00;99.90;;;;;;5045397;28;20461;-74
2021/10/20 10:11:50;;;;;;;5.33;4.83;;;15.90;99.90;;;;;;5031329;28;20743;-80
2021/10/20 10:14:18;;;;;;;5.13;4.73;;;15.90;99.90;;;;;;5046309;28;20508;-79
2021/10/20 10:16:46;;;;;;;6.00;5.17;;;16.00;99.90;;;;;;5040147;28;20408;-78
2021/10/20 10:19:12;;;;;;;5.73;4.50;;;16.10;99.90;;;;;;5047387;28;20477;-77
2021/10/20 10:21:42;;;;;;;6.53;5.83;;;16.10;99.90;;;;;;5040374;28;20752;-81
2021/10/20 10:24:16;;;;;;;9.50;4.80;;;16.10;99.90;;;;;;5055511;28;20418;-83
2021/10/20 10:27:10;;;;;;;6.53;5.40;;;16.20;99.90;;;;;;5058717;28;20428;-84
2021/10/20 10:29:54;;;;;;;5.40;5.00;;;16.10;99.90;;;;;;5048811;28;20513;-78
2021/10/20 10:32:21;;;;;;;5.37;4.87;;;16.10;99.90;;;;;;5075436;28;20452;-81
2021/10/20 10:34:49;;;;;;;5.87;5.37;;;16.10;99.90;;;;;;5063500;28;20430;-78
2021/10/20 10:40:23;;;;;;;7.13;5.97;;;16.00;99.90;;;;;;5106650;27;20566;-72
2021/10/20 10:42:49;;;;;;;7.70;5.80;;;16.00;99.90;;;;;;5082173;28;20437;-71
2021/10/20 10:45:21;;;;;;;5.73;5.23;;;15.90;99.90;;;;;;5088527;28;20420;-71
2021/10/20 10:53:34;;;;;;;6.63;6.07;;;15.80;99.90;;;;;;5068462;28;20522;-72
2021/10/20 10:56:04;;;;;;;7.70;6.90;;;15.60;99.90;;;;;;5045869;28;20433;-72
2021/10/20 10:58:29;;;;;;;7.47;6.00;;;15.60;99.90;;;;;;5049654;28;20415;-71
2021/10/20 11:00:55;;;;;;;7.60;5.57;;;15.60;99.90;;;;;;5047537;28;20422;-72
2021/10/20 11:03:27;;;;;;;7.67;5.80;;;15.70;99.90;;;;;;5049923;28;20214;-72
2021/10/20 11:05:57;;;;;;;8.67;7.10;;;15.80;99.90;;;;;;5041540;28;20208;-72
2021/10/20 11:08:24;;;;;;;6.70;6.10;;;15.80;99.90;;;;;;5045776;28;20538;-72
2021/10/20 11:10:51;;;;;;;6.73;6.13;;;15.90;99.90;;;;;;5028803;28;20903;-72
2021/10/20 11:13:17;;;;;;;7.70;6.93;;;15.80;99.90;;;;;;5040920;28;20796;-77
2021/10/20 11:15:45;;;;;;;8.00;6.50;;;15.80;99.90;;;;;;5045628;28;20468;-80
2021/10/20 11:18:11;;;;;;;9.83;8.20;;;15.80;99.90;;;;;;5039740;28;20907;-80
2021/10/20 11:20:42;;;;;;;7.17;6.50;;;15.80;99.90;;;;;;5037760;28;20415;-80
2021/10/20 11:23:10;;;;;;;7.20;6.50;;;15.90;99.90;;;;;;5048970;28;20438;-79
2021/10/20 11:25:40;;;;;;;7.83;7.07;;;15.80;99.90;;;;;;5039393;28;20518;-79
2021/10/20 11:28:06;;;;;;;8.60;7.70;;;15.80;99.90;;;;;;5048742;28;20407;-83
2021/10/20 11:30:35;;;;;;;7.50;6.80;;;15.80;99.90;;;;;;5048395;28;20464;-81
2021/10/20 11:33:01;;;;;;;7.40;6.63;;;15.80;99.90;;;;;;5049379;28;20472;-81
2021/10/20 11:35:30;;;;;;;9.53;7.40;;;15.70;99.90;;;;;;5048343;28;20439;-83
2021/10/20 11:40:44;;;;;;;8.47;7.70;;;15.70;99.90;;;;;;5044990;28;20671;-77
2021/10/20 11:43:20;;;;;;;7.57;6.87;;;15.70;99.90;;;;;;5044394;28;20418;-78
2021/10/20 11:45:47;;;;;;;8.10;7.13;;;15.60;99.90;;;;;;5042448;28;20406;-81
2021/10/20 11:48:15;;;;;;;9.00;8.10;;;15.60;99.90;;;;;;5043924;28;20458;-77
2021/10/20 11:50:41;;;;;;;9.50;7.40;;;15.60;99.90;;;;;;5040584;28;20446;-82
2021/10/20 11:53:08;;;;;;;7.90;7.10;;;15.60;99.90;;;;;;5036858;28;20469;-81
2021/10/20 11:55:41;;;;;;;8.60;7.80;;;15.50;99.90;;;;;;5047674;28;20168;-82
2021/10/20 11:58:06;;;;;;;9.30;8.40;;;15.50;99.90;;;;;;5050410;28;20427;-82
2021/10/20 12:00:34;;;;;;;7.70;7.00;;;15.50;99.90;;;;;;5051569;28;20927;-80
2021/10/20 12:03:00;;;;;;;9.10;8.20;;;15.50;99.90;;;;;;5039876;28;20184;-80
2021/10/20 12:05:27;;;;;;;11.47;8.73;;;15.50;99.90;;;;;;5043321;28;20428;-80
2021/10/20 12:07:53;;;;;;;8.83;7.93;;;15.50;99.90;;;;;;5047852;28;20490;-79
2021/10/20 12:10:19;;;;;;;9.00;8.00;;;15.60;99.90;;;;;;5048395;28;20407;-82
2021/10/20 12:12:47;;;;;;;9.73;8.73;;;15.60;99.90;;;;;;5047785;28;20484;-81
2021/10/20 12:15:19;;;;;;;9.40;8.50;;;15.70;99.90;;;;;;5045173;28;20522;-81
2021/10/20 12:17:47;;;;;;;9.57;8.63;;;15.70;99.90;;;;;;5044410;28;20423;-81
2021/10/20 12:20:15;;;;;;;10.47;7.70;;;15.90;99.90;;;;;;5048335;28;20462;-82
2021/10/20 12:22:41;;;;;;;9.60;8.60;;;16.00;99.90;;;;;;5041263;28;20435;-82
2021/10/20 12:25:07;;;;;;;8.70;7.73;;;16.00;99.90;;;;;;5048876;28;20387;-81
2021/10/20 12:27:38;;;;;;;8.50;6.60;;;16.10;99.90;;;;;;5048630;28;20443;-79
2021/10/20 12:30:06;;;;;;;7.53;6.83;;;16.20;99.90;;;;;;5047767;28;20759;-81
2021/10/20 12:32:35;;;;;;;8.60;6.67;;;16.30;99.90;;;;;;5040478;28;20577;-81
2021/10/20 12:35:04;;;;;;;6.87;6.23;;;16.40;99.90;;;;;;5029081;28;20428;-82
2021/10/20 12:37:32;;;;;;;8.03;7.23;;;16.50;99.90;;;;;;5040528;28;20776;-80
2021/10/20 12:40:06;;;;;;;7.07;6.37;;;16.60;99.90;;;;;;5039559;28;20463;-80
2021/10/20 12:42:52;;;;;;;8.37;7.57;;;16.60;99.90;;;;;;5045765;28;20415;-82
2021/10/20 12:45:19;;;;;;;10.57;7.70;;;16.70;99.90;;;;;;5041195;28;20517;-80
2021/10/20 12:47:48;;;;;;;7.73;7.03;;;16.70;99.90;;;;;;5040119;28;20432;-81
2021/10/20 12:50:15;;;;;;;7.60;6.90;;;16.70;99.90;;;;;;5044499;28;20484;-80
2021/10/20 12:52:42;;;;;;;7.40;6.33;;;16.70;99.90;;;;;;5035769;28;20419;-80
2021/10/20 12:55:10;;;;;;;8.10;6.30;;;16.60;99.90;;;;;;5015863;28;20428;-81